Time;durP1;ratioP1;P1;durP2;ratioP2;P2;SDS_P1;SDS_P2;PMS_P1;PMS_P2;Temp;Humidity;BMP_temperature;BMP_pressure;BME280_temperature;BME280_humidity;BME280_pressure;Samples;Min_cycle;Max_cycle;Signal;HPM_P1;HPM_P2
2022/03/17 00:01:12;;;;;;;33.75;22.13;;;14.20;84.50;;;;;;5119061;27;20557;-60
2022/03/17 00:03:38;;;;;;;29.60;20.15;;;14.10;84.40;;;;;;5101458;27;20131;-60
2022/03/17 00:06:05;;;;;;;36.30;21.30;;;14.20;84.50;;;;;;5102817;28;20901;-60
2022/03/17 00:08:31;;;;;;;29.35;21.00;;;14.10;84.50;;;;;;5102524;28;20055;-61
2022/03/17 00:10:56;;;;;;;30.20;20.58;;;14.10;84.60;;;;;;5102854;27;21069;-61
2022/03/17 00:13:22;;;;;;;28.30;20.70;;;14.00;84.50;;;;;;5087732;27;20045;-61
2022/03/17 00:15:48;;;;;;;36.53;20.92;;;14.00;84.60;;;;;;5125949;27;20540;-61
2022/03/17 00:18:13;;;;;;;26.90;20.42;;;14.00;84.60;;;;;;5123121;27;20035;-61
2022/03/17 00:20:39;;;;;;;30.98;21.80;;;14.00;84.90;;;;;;5104926;27;20043;-60
2022/03/17 00:23:05;;;;;;;36.85;24.55;;;14.00;84.50;;;;;;5105531;27;20031;-60
2022/03/17 00:25:31;;;;;;;31.10;22.65;;;14.00;84.50;;;;;;5105828;27;20024;-61
2022/03/17 00:27:57;;;;;;;34.92;22.40;;;14.00;84.50;;;;;;5124279;27;20015;-60
2022/03/17 00:30:23;;;;;;;28.30;20.70;;;13.90;84.50;;;;;;5085810;27;20042;-60
2022/03/17 00:32:48;;;;;;;29.10;20.20;;;13.90;84.50;;;;;;5084072;28;20034;-61
2022/03/17 00:37:59;;;;;;;30.13;20.60;;;13.90;84.60;;;;;;5104161;27;20031;-60
2022/03/17 00:40:24;;;;;;;29.67;20.40;;;13.90;84.70;;;;;;5086381;28;20031;-61
2022/03/17 00:42:51;;;;;;;28.42;20.55;;;13.80;84.80;;;;;;5103138;27;20040;-60
2022/03/17 00:45:17;;;;;;;24.45;21.52;;;13.80;84.70;;;;;;5085812;28;20047;-60
2022/03/17 00:47:42;;;;;;;28.60;20.73;;;13.80;84.70;;;;;;5103165;28;20062;-61
2022/03/17 00:50:09;;;;;;;26.02;20.70;;;13.70;85.30;;;;;;5105484;28;20521;-60
2022/03/17 00:52:35;;;;;;;33.22;22.38;;;13.80;84.70;;;;;;5068412;28;20126;-60
2022/03/17 00:55:01;;;;;;;29.73;21.10;;;13.80;84.70;;;;;;5103720;28;20114;-60
2022/03/17 00:57:26;;;;;;;31.92;21.25;;;13.80;84.70;;;;;;5101607;28;20405;-60
2022/03/17 00:59:52;;;;;;;25.45;20.42;;;13.80;84.60;;;;;;5085751;28;20051;-60
2022/03/17 01:02:17;;;;;;;25.13;19.85;;;13.70;84.60;;;;;;5105171;27;20031;-60
2022/03/17 01:04:43;;;;;;;24.33;20.40;;;13.70;84.60;;;;;;5102421;27;20074;-60
2022/03/17 01:07:08;;;;;;;24.63;19.63;;;13.70;84.70;;;;;;5104299;28;20030;-60
2022/03/17 01:09:34;;;;;;;26.85;19.95;;;13.60;84.70;;;;;;5104975;27;20126;-60
2022/03/17 01:11:59;;;;;;;25.73;20.17;;;13.60;84.70;;;;;;5100990;27;20454;-61
2022/03/17 01:14:25;;;;;;;25.20;20.40;;;13.60;84.60;;;;;;5102487;28;20031;-60
2022/03/17 01:16:51;;;;;;;24.05;20.15;;;13.60;84.70;;;;;;5085961;28;20084;-60
2022/03/17 01:19:19;;;;;;;24.30;18.98;;;13.60;84.70;;;;;;5085402;28;20299;-60
2022/03/17 01:21:45;;;;;;;25.98;20.50;;;13.50;84.70;;;;;;5102414;28;20420;-60
2022/03/17 01:24:11;;;;;;;26.45;19.90;;;13.50;84.70;;;;;;5082886;27;20567;-60
2022/03/17 01:26:36;;;;;;;26.45;20.25;;;13.50;84.80;;;;;;5102961;28;20035;-60
2022/03/17 01:29:02;;;;;;;28.40;20.85;;;13.50;84.80;;;;;;5104682;27;20039;-63
2022/03/17 01:31:29;;;;;;;24.80;20.60;;;13.50;84.80;;;;;;5103516;28;20084;-63
2022/03/17 01:33:54;;;;;;;23.48;19.35;;;13.40;84.80;;;;;;5100708;28;20103;-61
2022/03/17 01:36:20;;;;;;;23.05;19.58;;;13.40;84.80;;;;;;5102892;28;20051;-61
2022/03/17 01:38:45;;;;;;;26.60;19.63;;;13.40;84.80;;;;;;5102088;27;20455;-60
2022/03/17 01:41:11;;;;;;;24.60;19.70;;;13.40;84.80;;;;;;5104483;27;20059;-63
2022/03/17 01:43:36;;;;;;;25.20;19.88;;;13.40;84.70;;;;;;5084057;28;20126;-60
2022/03/17 01:46:02;;;;;;;25.15;21.17;;;13.40;84.60;;;;;;5084053;28;20073;-60
2022/03/17 01:48:27;;;;;;;25.90;22.30;;;13.40;84.60;;;;;;5083508;28;20123;-60
2022/03/17 01:50:53;;;;;;;29.00;21.77;;;13.40;84.60;;;;;;5068000;28;20035;-60
2022/03/17 01:53:21;;;;;;;26.70;23.38;;;13.40;84.60;;;;;;5065766;28;20024;-61
2022/03/17 01:55:47;;;;;;;24.00;21.17;;;13.30;84.60;;;;;;5084497;28;20032;-60
2022/03/17 01:58:12;;;;;;;26.80;21.77;;;13.30;84.70;;;;;;5101097;27;20089;-60
2022/03/17 02:00:40;;;;;;;22.95;20.27;;;13.30;84.70;;;;;;5083049;28;20039;-61
2022/03/17 02:03:06;;;;;;;25.83;21.38;;;13.30;84.70;;;;;;5067166;28;20173;-60
2022/03/17 02:05:32;;;;;;;24.25;20.35;;;13.30;84.80;;;;;;5099842;28;20118;-60
2022/03/17 02:07:58;;;;;;;26.70;20.40;;;13.30;84.80;;;;;;5101632;27;20024;-60
2022/03/17 02:10:23;;;;;;;24.15;19.98;;;13.30;84.80;;;;;;5083612;28;20039;-60
2022/03/17 02:15:33;;;;;;;25.90;19.90;;;13.20;84.80;;;;;;5102082;28;20037;-61
2022/03/17 02:17:59;;;;;;;22.08;19.65;;;13.20;84.80;;;;;;5101564;27;20036;-61
2022/03/17 02:20:25;;;;;;;27.67;20.50;;;13.20;84.80;;;;;;5102279;28;20028;-60
2022/03/17 02:22:51;;;;;;;32.65;20.80;;;13.20;85.50;;;;;;5079184;28;20024;-60
2022/03/17 02:25:36;;;;;;;27.30;20.83;;;13.20;84.90;;;;;;5100419;27;20853;-60
2022/03/17 02:28:06;;;;;;;25.92;20.02;;;13.10;84.70;;;;;;5070029;28;20132;-60
2022/03/17 02:30:34;;;;;;;34.70;21.38;;;13.10;84.60;;;;;;5076315;27;20053;-60
2022/03/17 02:33:04;;;;;;;26.95;20.67;;;13.10;84.70;;;;;;5101782;27;20019;-60
2022/03/17 02:35:32;;;;;;;32.92;21.42;;;13.20;84.60;;;;;;5099304;27;20438;-60
2022/03/17 02:37:58;;;;;;;33.53;20.38;;;13.10;84.60;;;;;;5117428;27;20033;-60
2022/03/17 02:40:25;;;;;;;36.33;21.63;;;13.10;84.70;;;;;;5121123;27;20099;-60
2022/03/17 02:42:51;;;;;;;40.03;23.25;;;13.10;84.70;;;;;;5101331;27;20042;-60
2022/03/17 02:45:17;;;;;;;42.55;24.35;;;13.10;84.70;;;;;;5103984;27;20019;-60
2022/03/17 02:47:42;;;;;;;33.67;23.70;;;13.00;84.70;;;;;;5105046;27;20057;-60
2022/03/17 02:50:10;;;;;;;41.13;21.65;;;13.00;84.70;;;;;;5120569;27;20289;-60
2022/03/17 02:52:35;;;;;;;27.50;21.13;;;13.00;84.70;;;;;;5102989;27;20434;-61
2022/03/17 02:55:02;;;;;;;37.72;21.05;;;13.00;85.40;;;;;;5120812;27;20050;-60
2022/03/17 02:57:27;;;;;;;31.70;21.10;;;13.00;84.70;;;;;;5120807;27;20601;-61
2022/03/17 02:59:54;;;;;;;32.10;21.88;;;12.90;84.70;;;;;;5122607;27;20113;-60
2022/03/17 03:02:19;;;;;;;26.38;21.20;;;12.90;84.80;;;;;;5101832;27;20464;-60
2022/03/17 03:04:45;;;;;;;30.50;21.92;;;12.90;84.70;;;;;;5101336;27;20130;-60
2022/03/17 03:07:10;;;;;;;27.10;20.48;;;12.90;84.80;;;;;;5084896;28;20122;-59
2022/03/17 03:09:36;;;;;;;28.15;21.65;;;12.90;84.80;;;;;;5118946;27;20112;-60
2022/03/17 03:12:02;;;;;;;24.17;19.75;;;12.80;84.80;;;;;;5104310;27;20043;-60
2022/03/17 03:14:28;;;;;;;32.55;20.13;;;12.80;84.70;;;;;;5101322;27;20043;-60
2022/03/17 03:16:54;;;;;;;24.90;20.70;;;12.80;84.80;;;;;;5084890;27;20023;-60
2022/03/17 03:19:19;;;;;;;33.10;20.30;;;12.80;84.80;;;;;;5102030;27;20054;-61
2022/03/17 03:21:45;;;;;;;24.10;19.92;;;12.80;84.80;;;;;;5121440;27;20355;-60
2022/03/17 03:24:11;;;;;;;29.27;19.60;;;12.80;84.80;;;;;;5100447;27;20055;-60
2022/03/17 03:26:36;;;;;;;31.02;21.00;;;12.80;84.80;;;;;;5121074;27;20129;-60
2022/03/17 03:29:06;;;;;;;27.40;20.58;;;12.80;84.70;;;;;;5119060;27;20085;-61
2022/03/17 03:31:31;;;;;;;25.50;19.75;;;12.70;84.70;;;;;;5104404;28;20131;-60
2022/03/17 03:33:57;;;;;;;23.80;20.45;;;12.70;84.80;;;;;;5102216;27;20499;-60
2022/03/17 03:39:06;;;;;;;26.17;21.20;;;12.70;84.80;;;;;;5123532;27;20137;-60
2022/03/17 03:41:32;;;;;;;24.58;20.08;;;12.70;84.80;;;;;;5121436;27;20122;-60
2022/03/17 03:43:58;;;;;;;27.00;20.27;;;12.70;84.80;;;;;;5119001;27;20077;-60
2022/03/17 03:46:24;;;;;;;26.05;19.70;;;12.70;84.90;;;;;;5102053;27;20082;-60
2022/03/17 03:48:49;;;;;;;27.00;21.95;;;12.60;84.90;;;;;;5089276;27;20647;-60
2022/03/17 03:51:15;;;;;;;32.92;22.35;;;12.60;85.00;;;;;;5126544;27;20447;-60
2022/03/17 03:56:26;;;;;;;28.92;23.10;;;12.60;85.10;;;;;;5109656;27;20442;-60
2022/03/17 03:58:52;;;;;;;25.70;21.92;;;12.50;85.00;;;;;;5105716;27;20035;-61
2022/03/17 04:01:18;;;;;;;28.83;21.73;;;12.60;85.20;;;;;;5125496;27;20027;-60
2022/03/17 04:03:44;;;;;;;26.90;20.08;;;12.60;85.20;;;;;;5124648;27;20186;-60
2022/03/17 04:06:10;;;;;;;25.58;20.02;;;12.50;85.20;;;;;;5125564;27;20078;-60
2022/03/17 04:08:36;;;;;;;28.52;20.70;;;12.50;85.20;;;;;;5124711;27;20047;-60
2022/03/17 04:11:01;;;;;;;23.73;21.08;;;12.50;85.20;;;;;;5123477;27;20050;-60
2022/03/17 04:13:27;;;;;;;26.25;20.60;;;12.50;85.20;;;;;;5103864;27;20098;-60
2022/03/17 04:15:52;;;;;;;22.10;19.52;;;12.50;85.30;;;;;;5125235;27;20533;-60
2022/03/17 04:18:18;;;;;;;27.40;20.00;;;12.50;85.30;;;;;;5125470;27;20083;-60
2022/03/17 04:20:44;;;;;;;24.02;20.95;;;12.50;85.30;;;;;;5125522;27;20588;-60
2022/03/17 04:23:09;;;;;;;22.50;19.77;;;12.50;85.30;;;;;;5120722;27;20026;-60
2022/03/17 04:25:35;;;;;;;28.25;19.90;;;12.50;85.20;;;;;;5126202;27;20039;-60
2022/03/17 04:28:00;;;;;;;22.65;19.25;;;12.40;85.20;;;;;;5124579;27;20442;-60
2022/03/17 04:30:26;;;;;;;23.88;19.45;;;12.50;85.20;;;;;;5123035;27;20051;-60
2022/03/17 04:32:52;;;;;;;21.70;19.40;;;12.50;85.20;;;;;;5105178;27;20467;-61
2022/03/17 04:35:17;;;;;;;22.05;19.67;;;12.40;85.10;;;;;;5107960;27;20027;-60
2022/03/17 04:37:43;;;;;;;24.52;19.80;;;12.40;85.20;;;;;;5083498;28;20513;-60
2022/03/17 04:40:09;;;;;;;25.63;19.60;;;12.40;85.20;;;;;;5102239;28;20139;-60
2022/03/17 04:42:34;;;;;;;24.67;19.92;;;12.40;85.10;;;;;;5113594;27;20051;-60
2022/03/17 04:45:00;;;;;;;20.88;18.75;;;12.40;85.20;;;;;;5083087;28;20128;-61
2022/03/17 04:47:25;;;;;;;21.90;18.50;;;12.40;85.40;;;;;;5060388;27;20054;-60
2022/03/17 04:49:52;;;;;;;20.77;18.60;;;12.40;85.20;;;;;;5108186;27;20314;-60
2022/03/17 04:55:01;;;;;;;23.50;19.02;;;12.30;85.10;;;;;;5102570;27;20327;-60
2022/03/17 04:57:27;;;;;;;22.52;19.45;;;12.40;85.30;;;;;;5088619;28;20087;-60
2022/03/17 04:59:52;;;;;;;25.45;19.55;;;12.40;85.60;;;;;;5106460;27;20054;-60
2022/03/17 05:02:18;;;;;;;26.98;19.55;;;12.30;85.70;;;;;;5104337;27;20395;-60
2022/03/17 05:04:43;;;;;;;24.17;19.17;;;12.30;85.80;;;;;;5083654;28;20675;-60
2022/03/17 05:07:09;;;;;;;21.42;18.85;;;12.30;86.10;;;;;;5109549;27;20051;-61
2022/03/17 05:09:34;;;;;;;24.48;19.17;;;12.30;86.20;;;;;;5107618;27;20129;-60
2022/03/17 05:12:00;;;;;;;22.88;19.40;;;12.30;86.10;;;;;;5098969;27;20118;-61
2022/03/17 05:14:25;;;;;;;23.00;18.70;;;12.30;86.10;;;;;;5102122;27;20027;-60
2022/03/17 05:16:51;;;;;;;22.48;18.13;;;12.30;86.10;;;;;;5102851;28;20039;-60
2022/03/17 05:19:17;;;;;;;22.98;19.52;;;12.30;86.10;;;;;;5105245;27;20798;-60
2022/03/17 05:21:44;;;;;;;24.77;20.10;;;12.30;86.20;;;;;;5106557;27;20653;-60
2022/03/17 05:24:10;;;;;;;26.17;20.83;;;12.20;86.10;;;;;;5103092;27;20041;-60
2022/03/17 05:26:35;;;;;;;22.42;20.10;;;12.20;86.10;;;;;;5110752;27;20028;-60
2022/03/17 05:29:01;;;;;;;23.88;20.25;;;12.20;86.10;;;;;;5090229;28;20074;-60
2022/03/17 05:31:26;;;;;;;25.77;22.10;;;12.20;86.10;;;;;;5104673;27;20123;-60
2022/03/17 05:33:52;;;;;;;24.30;20.75;;;12.20;86.10;;;;;;5103030;27;20685;-60
2022/03/17 05:36:17;;;;;;;56.50;21.92;;;12.20;86.10;;;;;;5086521;28;20056;-61
2022/03/17 05:38:43;;;;;;;248.57;34.90;;;12.20;86.10;;;;;;5087836;27;20028;-60
2022/03/17 05:41:08;;;;;;;128.82;25.92;;;12.20;86.10;;;;;;5085425;27;20080;-60
2022/03/17 05:43:34;;;;;;;273.25;34.72;;;12.10;86.10;;;;;;5070899;27;20141;-60
2022/03/17 05:45:59;;;;;;;338.27;42.00;;;12.10;86.10;;;;;;5107586;27;20034;-60
2022/03/17 05:48:25;;;;;;;179.70;31.02;;;12.10;86.20;;;;;;5089946;28;20389;-60
2022/03/17 05:50:51;;;;;;;234.45;33.72;;;12.10;86.20;;;;;;5109026;27;20040;-60
2022/03/17 05:53:16;;;;;;;159.65;31.17;;;12.10;86.20;;;;;;5105160;27;20203;-60
2022/03/17 05:55:42;;;;;;;151.55;28.77;;;12.10;86.10;;;;;;5084487;27;20056;-60
2022/03/17 05:58:07;;;;;;;133.18;28.23;;;12.10;86.10;;;;;;5088915;27;20111;-60
2022/03/17 06:00:33;;;;;;;137.07;27.30;;;12.10;86.20;;;;;;5085082;27;20031;-61
2022/03/17 06:02:59;;;;;;;122.68;26.00;;;12.00;86.10;;;;;;5087752;28;20032;-61
2022/03/17 06:05:25;;;;;;;127.93;27.80;;;12.10;86.10;;;;;;5069851;28;20024;-60
2022/03/17 06:07:52;;;;;;;129.63;27.83;;;12.10;86.10;;;;;;5084191;28;20043;-60
2022/03/17 06:10:21;;;;;;;92.68;26.65;;;12.00;86.10;;;;;;5100945;27;20375;-60
2022/03/17 06:12:48;;;;;;;97.03;24.50;;;12.10;86.30;;;;;;5105009;27;20051;-60
2022/03/17 06:15:14;;;;;;;103.18;27.05;;;12.00;86.30;;;;;;5106318;27;20031;-60
2022/03/17 06:17:42;;;;;;;125.38;27.63;;;12.00;86.40;;;;;;5090559;28;20024;-60
2022/03/17 06:20:09;;;;;;;93.28;26.13;;;12.00;86.80;;;;;;5065358;27;20439;-60
2022/03/17 06:22:37;;;;;;;97.93;25.08;;;12.00;86.70;;;;;;5085679;27;20068;-60
2022/03/17 06:25:02;;;;;;;83.60;23.55;;;12.00;86.40;;;;;;5100865;27;20046;-60
2022/03/17 06:27:28;;;;;;;96.88;25.63;;;12.00;86.40;;;;;;5108299;27;20024;-60
2022/03/17 06:29:53;;;;;;;88.40;23.25;;;12.00;86.50;;;;;;5102437;27;20044;-60
2022/03/17 06:32:19;;;;;;;100.05;27.08;;;12.00;86.50;;;;;;5102296;28;20028;-60
2022/03/17 06:34:44;;;;;;;78.55;25.13;;;12.00;86.40;;;;;;5101346;28;20294;-60
2022/03/17 06:37:10;;;;;;;82.93;24.55;;;12.00;86.40;;;;;;5084664;28;20443;-60
2022/03/17 06:39:35;;;;;;;79.85;23.58;;;12.00;86.40;;;;;;5100290;28;20056;-60
2022/03/17 06:42:01;;;;;;;73.18;23.75;;;12.00;86.40;;;;;;5082543;28;20463;-60
2022/03/17 06:44:26;;;;;;;96.07;24.80;;;12.00;86.40;;;;;;5068209;28;20020;-60
2022/03/17 06:46:52;;;;;;;87.18;23.60;;;12.00;86.40;;;;;;5084225;28;20059;-61
2022/03/17 06:49:17;;;;;;;85.55;25.85;;;12.00;86.40;;;;;;5066128;28;20122;-60
2022/03/17 06:51:43;;;;;;;67.47;23.52;;;12.00;87.10;;;;;;5083022;28;20077;-60
2022/03/17 06:54:08;;;;;;;92.57;25.20;;;12.00;86.50;;;;;;5067796;27;21470;-60
2022/03/17 06:56:34;;;;;;;85.10;24.88;;;12.10;86.60;;;;;;5101920;28;20468;-60
2022/03/17 06:58:59;;;;;;;93.53;23.23;;;11.90;86.50;;;;;;5098824;28;20019;-60
2022/03/17 07:01:25;;;;;;;79.93;23.17;;;12.00;86.70;;;;;;5099907;28;20416;-60
2022/03/17 07:03:50;;;;;;;80.80;23.48;;;11.90;86.50;;;;;;5061579;28;20036;-60
2022/03/17 07:06:16;;;;;;;70.18;25.08;;;12.00;86.60;;;;;;5102388;28;20491;-60
2022/03/17 07:08:41;;;;;;;72.00;24.73;;;12.00;86.50;;;;;;5099801;28;20063;-60
2022/03/17 07:11:07;;;;;;;125.80;29.83;;;12.00;86.50;;;;;;5098410;28;20532;-60
2022/03/17 07:13:33;;;;;;;196.38;34.25;;;11.90;86.40;;;;;;5094820;28;20039;-60
2022/03/17 07:15:58;;;;;;;94.20;27.20;;;12.00;86.60;;;;;;5094773;28;20338;-60
2022/03/17 07:18:24;;;;;;;94.65;26.00;;;12.00;86.60;;;;;;5091779;28;20027;-61
2022/03/17 07:20:50;;;;;;;102.90;26.35;;;12.00;86.70;;;;;;5085340;27;20039;-60
2022/03/17 07:23:16;;;;;;;83.57;23.73;;;12.00;86.70;;;;;;5090831;28;20032;-60
2022/03/17 07:25:41;;;;;;;77.03;25.25;;;12.00;86.70;;;;;;5093975;28;20047;-60
2022/03/17 07:28:07;;;;;;;127.03;28.38;;;11.90;86.70;;;;;;5097199;28;20039;-60
2022/03/17 07:30:33;;;;;;;91.82;26.15;;;12.00;86.70;;;;;;5102828;28;20092;-60
2022/03/17 07:32:59;;;;;;;88.38;27.23;;;12.00;86.80;;;;;;5100766;28;20135;-60
2022/03/17 07:35:28;;;;;;;89.20;25.40;;;12.00;86.80;;;;;;5081847;28;20028;-60
2022/03/17 07:37:54;;;;;;;99.93;27.70;;;12.00;86.80;;;;;;5103680;28;20132;-60
2022/03/17 07:40:20;;;;;;;73.95;24.83;;;12.00;86.90;;;;;;5086877;28;20115;-60
2022/03/17 07:42:45;;;;;;;78.53;26.02;;;12.00;86.90;;;;;;5078624;28;20032;-60
2022/03/17 07:45:11;;;;;;;86.10;24.75;;;12.00;86.90;;;;;;5102213;28;20032;-60
2022/03/17 07:47:44;;;;;;;83.72;25.77;;;12.00;86.90;;;;;;5093941;28;20039;-60
2022/03/17 07:50:10;;;;;;;125.32;28.73;;;12.00;87.00;;;;;;5083309;28;20416;-60
2022/03/17 07:52:35;;;;;;;116.57;29.35;;;12.00;87.00;;;;;;5099560;28;20043;-60
2022/03/17 07:55:01;;;;;;;113.05;30.55;;;12.00;87.00;;;;;;5105670;28;20039;-60
2022/03/17 07:57:26;;;;;;;129.75;29.65;;;12.00;87.20;;;;;;5105923;28;20418;-60
2022/03/17 07:59:52;;;;;;;117.00;28.50;;;12.10;87.20;;;;;;5104519;28;20045;-60
2022/03/17 08:02:19;;;;;;;100.85;29.35;;;12.00;87.00;;;;;;5081394;28;20039;-60
2022/03/17 08:04:48;;;;;;;127.03;28.33;;;12.10;87.00;;;;;;5078949;28;20118;-60
2022/03/17 08:07:13;;;;;;;128.02;30.17;;;12.10;87.00;;;;;;5098858;28;20030;-60
2022/03/17 08:09:39;;;;;;;125.35;30.30;;;12.10;87.10;;;;;;5053887;28;20027;-60
2022/03/17 08:12:05;;;;;;;164.63;33.90;;;12.10;87.20;;;;;;5101266;28;20027;-60
2022/03/17 08:14:31;;;;;;;195.60;34.28;;;12.10;87.30;;;;;;5085986;28;20072;-60
2022/03/17 08:16:56;;;;;;;183.88;38.10;;;12.10;87.90;;;;;;5099398;28;20172;-60
2022/03/17 08:19:22;;;;;;;193.40;36.25;;;12.20;88.10;;;;;;5090838;28;20704;-61
2022/03/17 08:21:47;;;;;;;153.82;35.22;;;12.20;88.20;;;;;;5075195;28;20565;-60
2022/03/17 08:24:13;;;;;;;209.07;38.58;;;12.20;87.70;;;;;;5073692;28;20036;-60
2022/03/17 08:26:39;;;;;;;133.57;33.83;;;12.20;88.00;;;;;;5097644;28;20028;-60
2022/03/17 08:29:05;;;;;;;168.60;34.55;;;12.20;87.80;;;;;;5064066;28;20027;-60
2022/03/17 08:31:31;;;;;;;157.13;33.25;;;12.20;87.60;;;;;;5088724;28;20046;-59
2022/03/17 08:33:56;;;;;;;183.57;38.00;;;12.30;87.70;;;;;;5081322;27;20020;-60
2022/03/17 08:36:25;;;;;;;155.75;34.78;;;12.30;87.90;;;;;;5104391;27;20117;-60
2022/03/17 08:38:54;;;;;;;170.65;35.13;;;12.30;87.70;;;;;;5103311;27;20054;-60
2022/03/17 08:41:20;;;;;;;152.57;34.53;;;12.30;87.80;;;;;;5096558;27;20035;-60
2022/03/17 08:43:46;;;;;;;171.30;34.83;;;12.30;87.90;;;;;;5122090;27;20034;-61
2022/03/17 08:51:39;;;;;;;163.63;36.78;;;12.40;87.90;;;;;;5111215;27;20046;-61
2022/03/17 08:54:05;;;;;;;181.73;34.97;;;12.40;88.00;;;;;;5107719;27;20043;-62
2022/03/17 08:56:32;;;;;;;197.35;34.15;;;12.40;87.70;;;;;;5119578;27;20039;-61
2022/03/17 08:58:58;;;;;;;191.73;36.47;;;12.40;87.80;;;;;;5102850;27;20114;-61
2022/03/17 09:01:24;;;;;;;169.93;35.65;;;12.40;87.80;;;;;;5117296;27;20106;-61
2022/03/17 09:03:49;;;;;;;157.73;35.03;;;12.50;88.00;;;;;;5100710;27;20207;-61
2022/03/17 09:06:15;;;;;;;136.05;29.88;;;12.50;87.80;;;;;;5114400;27;20031;-61
2022/03/17 09:08:41;;;;;;;128.60;29.60;;;12.50;87.50;;;;;;5117571;27;20085;-61
2022/03/17 09:11:07;;;;;;;140.30;30.98;;;12.40;87.00;;;;;;5103133;27;20493;-61
2022/03/17 09:13:32;;;;;;;142.68;31.42;;;12.50;87.60;;;;;;5100981;27;20043;-62
2022/03/17 09:15:58;;;;;;;117.25;29.48;;;12.60;87.00;;;;;;5099804;27;20046;-65
2022/03/17 09:18:23;;;;;;;141.00;30.38;;;12.60;87.10;;;;;;5100879;27;20446;-60
2022/03/17 09:20:49;;;;;;;146.57;32.08;;;12.60;87.10;;;;;;5121843;27;20070;-61
2022/03/17 09:23:16;;;;;;;144.20;31.15;;;12.60;87.10;;;;;;5085255;27;20394;-62
2022/03/17 09:25:41;;;;;;;169.18;32.45;;;12.70;87.40;;;;;;5099791;27;20068;-61
2022/03/17 09:28:07;;;;;;;224.43;36.88;;;12.70;87.10;;;;;;5121381;27;20370;-61
2022/03/17 09:30:32;;;;;;;132.18;31.58;;;12.80;87.20;;;;;;5102723;27;20520;-61
2022/03/17 09:32:59;;;;;;;168.45;32.63;;;12.80;87.00;;;;;;5103859;27;20510;-61
2022/03/17 09:35:24;;;;;;;136.57;30.38;;;12.80;87.20;;;;;;5115477;27;20023;-61
2022/03/17 09:37:50;;;;;;;146.23;32.13;;;13.10;87.10;;;;;;5100599;27;20103;-61
2022/03/17 09:40:16;;;;;;;136.05;29.70;;;12.90;87.10;;;;;;5115033;27;20132;-62
2022/03/17 09:42:41;;;;;;;124.45;31.83;;;13.00;87.10;;;;;;5097340;27;20044;-61
2022/03/17 09:45:08;;;;;;;143.52;31.08;;;13.00;86.90;;;;;;5077329;27;20034;-61
2022/03/17 09:47:36;;;;;;;131.43;31.05;;;13.00;86.90;;;;;;5096204;27;20709;-61
2022/03/17 09:50:02;;;;;;;149.48;30.55;;;13.00;86.80;;;;;;5097923;27;20034;-61
2022/03/17 09:52:27;;;;;;;129.48;29.10;;;13.10;87.00;;;;;;5094603;27;21014;-61
2022/03/17 09:54:53;;;;;;;112.38;28.70;;;13.00;87.10;;;;;;5118863;27;20035;-61
2022/03/17 09:57:19;;;;;;;151.30;32.88;;;13.10;87.00;;;;;;5101396;27;20058;-62
2022/03/17 09:59:46;;;;;;;128.75;31.33;;;13.10;87.00;;;;;;5081894;27;20022;-62
2022/03/17 10:02:13;;;;;;;114.47;29.50;;;13.20;87.00;;;;;;5109213;27;20031;-62
2022/03/17 10:04:39;;;;;;;137.02;33.83;;;13.20;87.00;;;;;;5100761;27;20038;-61
2022/03/17 10:07:05;;;;;;;154.32;33.83;;;13.30;87.10;;;;;;5102014;27;20035;-61
2022/03/17 10:09:30;;;;;;;155.15;33.08;;;13.30;87.20;;;;;;5120710;27;20034;-61
2022/03/17 10:12:00;;;;;;;147.93;32.38;;;13.30;87.10;;;;;;5100051;27;20064;-61
2022/03/17 10:14:45;;;;;;;141.20;34.35;;;13.30;87.30;;;;;;5100737;27;20137;-61
2022/03/17 10:17:39;;;;;;;112.13;32.33;;;13.40;87.20;;;;;;5119816;27;20088;-61
2022/03/17 10:20:27;;;;;;;128.50;31.00;;;13.50;87.10;;;;;;5099965;27;20086;-62
2022/03/17 10:22:57;;;;;;;124.57;31.35;;;13.50;87.10;;;;;;5104233;27;20030;-61
2022/03/17 10:25:23;;;;;;;157.98;33.95;;;13.50;87.10;;;;;;5095803;27;20100;-61
2022/03/17 10:27:49;;;;;;;130.07;30.77;;;13.60;87.20;;;;;;5117482;27;20046;-61
2022/03/17 10:30:41;;;;;;;133.75;30.75;;;13.60;87.20;;;;;;5080605;28;20088;-61
2022/03/17 10:33:14;;;;;;;159.95;35.72;;;13.60;87.10;;;;;;5096461;28;20492;-61
2022/03/17 10:35:45;;;;;;;139.65;32.63;;;13.70;87.30;;;;;;5063619;28;20926;-61
2022/03/17 10:38:18;;;;;;;137.25;33.08;;;13.70;87.10;;;;;;5078205;28;20050;-61
2022/03/17 10:40:45;;;;;;;161.07;36.13;;;13.80;87.20;;;;;;5077332;28;20040;-61
2022/03/17 10:43:18;;;;;;;155.70;34.00;;;13.80;87.30;;;;;;5064738;28;20577;-61
2022/03/17 10:45:43;;;;;;;145.32;31.83;;;13.90;87.60;;;;;;5078548;28;20523;-61
2022/03/17 10:48:09;;;;;;;168.95;36.85;;;13.90;87.70;;;;;;5087863;28;20153;-61
2022/03/17 10:50:39;;;;;;;182.88;34.28;;;14.00;88.00;;;;;;5097714;28;20135;-61
2022/03/17 10:53:05;;;;;;;140.98;31.65;;;14.00;87.90;;;;;;5084441;28;20582;-61
2022/03/17 10:55:32;;;;;;;200.48;37.67;;;14.10;87.60;;;;;;5097260;28;20034;-62
2022/03/17 10:58:14;;;;;;;124.25;30.80;;;14.10;87.70;;;;;;5100709;28;20382;-62
2022/03/17 11:00:46;;;;;;;107.68;29.25;;;14.10;87.50;;;;;;5063564;28;20158;-61
2022/03/17 11:03:13;;;;;;;116.35;29.10;;;14.20;87.40;;;;;;5099576;28;20038;-61
2022/03/17 11:05:38;;;;;;;124.22;31.08;;;14.20;87.40;;;;;;5068527;28;20038;-62
2022/03/17 11:08:06;;;;;;;135.77;31.55;;;14.20;87.70;;;;;;5078307;28;20027;-62
2022/03/17 11:10:35;;;;;;;124.45;30.60;;;14.30;87.70;;;;;;5080837;28;20062;-62
2022/03/17 11:13:04;;;;;;;119.47;29.83;;;14.30;87.50;;;;;;5075024;28;20059;-62
2022/03/17 11:15:30;;;;;;;137.52;33.17;;;14.40;87.60;;;;;;5075085;28;20494;-62
2022/03/17 11:18:02;;;;;;;119.32;30.63;;;14.40;87.70;;;;;;5078012;28;20110;-62
2022/03/17 11:20:27;;;;;;;135.55;30.15;;;14.50;87.80;;;;;;5080029;28;20028;-61
2022/03/17 11:23:06;;;;;;;119.18;28.65;;;14.50;87.80;;;;;;5076851;28;20034;-61
2022/03/17 11:25:34;;;;;;;133.90;33.75;;;14.50;87.60;;;;;;5094879;28;20059;-61
2022/03/17 11:28:01;;;;;;;136.32;30.90;;;14.60;87.40;;;;;;5091718;28;20063;-62
2022/03/17 11:30:51;;;;;;;135.80;31.92;;;14.60;87.40;;;;;;5097352;28;20116;-61
2022/03/17 11:33:31;;;;;;;124.63;31.75;;;14.60;87.50;;;;;;5086938;28;20055;-61
2022/03/17 11:35:59;;;;;;;172.63;36.80;;;14.70;87.60;;;;;;5083162;28;20114;-61
2022/03/17 11:38:37;;;;;;;139.50;32.03;;;14.70;87.60;;;;;;5064821;28;20034;-62
2022/03/17 11:41:15;;;;;;;147.93;34.03;;;14.80;87.50;;;;;;5081985;28;20026;-62
2022/03/17 11:43:47;;;;;;;203.60;37.30;;;14.80;87.50;;;;;;5102075;28;20016;-61
2022/03/17 11:46:13;;;;;;;161.50;35.47;;;14.90;87.70;;;;;;5102151;28;20063;-62
2022/03/17 11:48:39;;;;;;;192.27;35.70;;;14.90;87.70;;;;;;5065000;28;20043;-62
2022/03/17 11:51:06;;;;;;;131.40;32.85;;;15.00;87.70;;;;;;5080063;28;20027;-61
2022/03/17 11:53:37;;;;;;;124.95;32.97;;;15.00;87.60;;;;;;5073253;28;20120;-62
2022/03/17 11:56:02;;;;;;;131.68;28.80;;;15.10;87.30;;;;;;5074345;28;20024;-61
2022/03/17 11:58:46;;;;;;;121.13;29.10;;;15.10;87.10;;;;;;5074711;28;20036;-61
2022/03/17 12:01:33;;;;;;;111.15;28.20;;;15.20;87.00;;;;;;5078292;28;20024;-61
2022/03/17 12:03:59;;;;;;;95.72;26.33;;;15.20;86.80;;;;;;5077063;28;20089;-61
2022/03/17 12:06:28;;;;;;;115.45;29.30;;;15.30;86.60;;;;;;5059527;28;20059;-61
2022/03/17 12:08:59;;;;;;;136.20;28.52;;;15.30;86.50;;;;;;5052538;28;20164;-61
2022/03/17 12:11:31;;;;;;;120.60;29.42;;;15.40;86.50;;;;;;5095690;27;20063;-62
2022/03/17 12:14:16;;;;;;;117.85;29.67;;;15.40;86.30;;;;;;5059600;28;20453;-62
2022/03/17 12:16:48;;;;;;;108.32;29.45;;;15.50;86.20;;;;;;5096145;28;20046;-61
2022/03/17 12:19:27;;;;;;;147.40;31.50;;;15.50;86.20;;;;;;5080166;28;20055;-62
2022/03/17 12:21:58;;;;;;;154.68;30.55;;;15.60;86.10;;;;;;5099006;27;20028;-61
2022/03/17 12:24:52;;;;;;;123.32;29.63;;;15.60;85.90;;;;;;5097694;27;20019;-62
2022/03/17 12:27:26;;;;;;;150.65;31.02;;;15.60;85.90;;;;;;5095576;28;20084;-61
2022/03/17 12:29:59;;;;;;;100.70;28.08;;;15.70;85.60;;;;;;5078171;28;20035;-62
2022/03/17 12:32:26;;;;;;;121.32;28.05;;;15.70;85.40;;;;;;5116620;27;20039;-62
2022/03/17 12:34:53;;;;;;;123.18;27.80;;;15.70;85.30;;;;;;5089239;27;20135;-62
2022/03/17 12:37:20;;;;;;;122.30;27.10;;;15.80;85.10;;;;;;5078145;27;20027;-61
2022/03/17 12:39:50;;;;;;;131.52;29.02;;;15.80;85.10;;;;;;5083203;27;20464;-61
2022/03/17 12:42:17;;;;;;;126.82;28.83;;;15.90;85.00;;;;;;5099703;27;20033;-62